sensor_id;sensor_type;location;lat;lon;timestamp;P1;durP1;ratioP1;P2;durP2;ratioP2
39772;SDS011;25451;51.960;6.250;2022-08-21T00:01:16;4.90;;;2.43;;
39772;SDS011;25451;51.960;6.250;2022-08-21T00:03:44;5.22;;;2.30;;
39772;SDS011;25451;51.960;6.250;2022-08-21T00:06:10;4.17;;;2.27;;
39772;SDS011;25451;51.960;6.250;2022-08-21T00:08:36;4.90;;;2.38;;
39772;SDS011;25451;51.960;6.250;2022-08-21T00:11:01;5.13;;;2.27;;
39772;SDS011;25451;51.960;6.250;2022-08-21T00:13:27;7.45;;;2.55;;
39772;SDS011;25451;51.960;6.250;2022-08-21T00:15:52;4.97;;;2.30;;
39772;SDS011;25451;51.960;6.250;2022-08-21T00:18:18;5.90;;;2.53;;
39772;SDS011;25451;51.960;6.250;2022-08-21T00:20:44;5.40;;;2.38;;
39772;SDS011;25451;51.960;6.250;2022-08-21T00:23:10;4.80;;;2.40;;
39772;SDS011;25451;51.960;6.250;2022-08-21T00:25:36;5.03;;;2.42;;
39772;SDS011;25451;51.960;6.250;2022-08-21T00:28:02;6.78;;;2.30;;
39772;SDS011;25451;51.960;6.250;2022-08-21T00:30:28;7.35;;;2.30;;
39772;SDS011;25451;51.960;6.250;2022-08-21T00:32:55;5.10;;;2.50;;
39772;SDS011;25451;51.960;6.250;2022-08-21T00:35:25;5.75;;;2.35;;
39772;SDS011;25451;51.960;6.250;2022-08-21T00:37:54;5.53;;;2.50;;
39772;SDS011;25451;51.960;6.250;2022-08-21T00:40:21;7.88;;;2.45;;
39772;SDS011;25451;51.960;6.250;2022-08-21T00:42:56;6.80;;;2.60;;
39772;SDS011;25451;51.960;6.250;2022-08-21T00:45:22;5.15;;;2.30;;
39772;SDS011;25451;51.960;6.250;2022-08-21T00:47:48;5.18;;;2.33;;
39772;SDS011;25451;51.960;6.250;2022-08-21T00:50:15;5.38;;;2.40;;
39772;SDS011;25451;51.960;6.250;2022-08-21T00:52:41;5.07;;;2.40;;
39772;SDS011;25451;51.960;6.250;2022-08-21T00:55:07;6.38;;;2.40;;
39772;SDS011;25451;51.960;6.250;2022-08-21T00:57:38;5.47;;;2.13;;
39772;SDS011;25451;51.960;6.250;2022-08-21T01:00:08;4.90;;;2.23;;
39772;SDS011;25451;51.960;6.250;2022-08-21T01:02:39;6.40;;;2.60;;
39772;SDS011;25451;51.960;6.250;2022-08-21T01:05:04;4.50;;;2.60;;
39772;SDS011;25451;51.960;6.250;2022-08-21T01:07:30;4.67;;;2.60;;
39772;SDS011;25451;51.960;6.250;2022-08-21T01:09:56;4.80;;;2.20;;
39772;SDS011;25451;51.960;6.250;2022-08-21T01:12:22;4.68;;;2.40;;
39772;SDS011;25451;51.960;6.250;2022-08-21T01:14:48;4.97;;;2.53;;
39772;SDS011;25451;51.960;6.250;2022-08-21T01:17:14;6.95;;;2.60;;
39772;SDS011;25451;51.960;6.250;2022-08-21T01:19:41;8.07;;;2.70;;
39772;SDS011;25451;51.960;6.250;2022-08-21T01:22:07;4.47;;;2.50;;
39772;SDS011;25451;51.960;6.250;2022-08-21T01:24:33;5.40;;;2.43;;
39772;SDS011;25451;51.960;6.250;2022-08-21T01:26:59;7.90;;;2.50;;
39772;SDS011;25451;51.960;6.250;2022-08-21T01:29:41;5.93;;;2.55;;
39772;SDS011;25451;51.960;6.250;2022-08-21T01:32:12;4.32;;;2.50;;
39772;SDS011;25451;51.960;6.250;2022-08-21T01:34:41;4.28;;;2.50;;
39772;SDS011;25451;51.960;6.250;2022-08-21T01:37:08;6.10;;;2.50;;
39772;SDS011;25451;51.960;6.250;2022-08-21T01:39:35;4.33;;;2.67;;
39772;SDS011;25451;51.960;6.250;2022-08-21T01:42:01;6.95;;;2.33;;
39772;SDS011;25451;51.960;6.250;2022-08-21T01:44:27;5.07;;;2.55;;
39772;SDS011;25451;51.960;6.250;2022-08-21T01:46:53;6.07;;;2.50;;
39772;SDS011;25451;51.960;6.250;2022-08-21T01:49:19;5.00;;;2.55;;
39772;SDS011;25451;51.960;6.250;2022-08-21T01:51:44;5.53;;;2.57;;
39772;SDS011;25451;51.960;6.250;2022-08-21T01:54:10;4.80;;;2.00;;
39772;SDS011;25451;51.960;6.250;2022-08-21T01:56:36;3.77;;;2.30;;
39772;SDS011;25451;51.960;6.250;2022-08-21T01:59:03;3.50;;;2.20;;
39772;SDS011;25451;51.960;6.250;2022-08-21T02:01:29;4.13;;;2.40;;
39772;SDS011;25451;51.960;6.250;2022-08-21T02:03:54;4.77;;;2.20;;
39772;SDS011;25451;51.960;6.250;2022-08-21T02:06:19;5.57;;;2.30;;
39772;SDS011;25451;51.960;6.250;2022-08-21T02:08:45;5.30;;;2.03;;
39772;SDS011;25451;51.960;6.250;2022-08-21T02:11:11;5.22;;;2.40;;
39772;SDS011;25451;51.960;6.250;2022-08-21T02:13:36;5.73;;;2.70;;
39772;SDS011;25451;51.960;6.250;2022-08-21T02:16:02;4.65;;;2.40;;
39772;SDS011;25451;51.960;6.250;2022-08-21T02:18:28;4.23;;;2.30;;
39772;SDS011;25451;51.960;6.250;2022-08-21T02:20:54;7.03;;;2.40;;
39772;SDS011;25451;51.960;6.250;2022-08-21T02:23:19;4.93;;;2.30;;
39772;SDS011;25451;51.960;6.250;2022-08-21T02:25:45;5.88;;;2.70;;
39772;SDS011;25451;51.960;6.250;2022-08-21T02:28:12;4.33;;;2.10;;
39772;SDS011;25451;51.960;6.250;2022-08-21T02:30:40;4.33;;;2.10;;
39772;SDS011;25451;51.960;6.250;2022-08-21T02:33:08;5.18;;;2.50;;
39772;SDS011;25451;51.960;6.250;2022-08-21T02:35:35;4.95;;;2.40;;
39772;SDS011;25451;51.960;6.250;2022-08-21T02:38:03;5.38;;;2.25;;
39772;SDS011;25451;51.960;6.250;2022-08-21T02:40:32;6.30;;;2.40;;
39772;SDS011;25451;51.960;6.250;2022-08-21T02:42:59;4.90;;;2.10;;
39772;SDS011;25451;51.960;6.250;2022-08-21T02:45:25;4.90;;;2.40;;
39772;SDS011;25451;51.960;6.250;2022-08-21T02:47:54;3.92;;;2.30;;
39772;SDS011;25451;51.960;6.250;2022-08-21T02:50:26;4.45;;;2.42;;
39772;SDS011;25451;51.960;6.250;2022-08-21T02:52:54;7.55;;;2.50;;
39772;SDS011;25451;51.960;6.250;2022-08-21T02:55:21;3.93;;;2.20;;
39772;SDS011;25451;51.960;6.250;2022-08-21T02:57:48;5.00;;;2.88;;
39772;SDS011;25451;51.960;6.250;2022-08-21T03:00:14;4.22;;;2.30;;
39772;SDS011;25451;51.960;6.250;2022-08-21T03:02:40;5.63;;;2.40;;
39772;SDS011;25451;51.960;6.250;2022-08-21T03:05:07;6.30;;;2.60;;
39772;SDS011;25451;51.960;6.250;2022-08-21T03:07:34;5.70;;;2.53;;
39772;SDS011;25451;51.960;6.250;2022-08-21T03:10:00;4.57;;;2.43;;
39772;SDS011;25451;51.960;6.250;2022-08-21T03:12:25;6.43;;;2.57;;
39772;SDS011;25451;51.960;6.250;2022-08-21T03:14:51;4.78;;;2.55;;
39772;SDS011;25451;51.960;6.250;2022-08-21T03:17:16;5.30;;;2.70;;
39772;SDS011;25451;51.960;6.250;2022-08-21T03:19:41;6.53;;;2.70;;
39772;SDS011;25451;51.960;6.250;2022-08-21T03:22:07;6.97;;;2.70;;
39772;SDS011;25451;51.960;6.250;2022-08-21T03:24:32;5.53;;;2.90;;
39772;SDS011;25451;51.960;6.250;2022-08-21T03:26:57;4.67;;;2.60;;
39772;SDS011;25451;51.960;6.250;2022-08-21T03:29:23;6.97;;;2.53;;
39772;SDS011;25451;51.960;6.250;2022-08-21T03:31:48;5.73;;;2.70;;
39772;SDS011;25451;51.960;6.250;2022-08-21T03:34:13;4.93;;;2.70;;
39772;SDS011;25451;51.960;6.250;2022-08-21T03:36:39;6.50;;;2.97;;
39772;SDS011;25451;51.960;6.250;2022-08-21T03:39:04;5.67;;;2.83;;
39772;SDS011;25451;51.960;6.250;2022-08-21T03:41:30;5.67;;;2.67;;
39772;SDS011;25451;51.960;6.250;2022-08-21T03:43:55;6.22;;;2.75;;
39772;SDS011;25451;51.960;6.250;2022-08-21T03:46:21;6.17;;;3.00;;
39772;SDS011;25451;51.960;6.250;2022-08-21T03:48:46;6.10;;;2.97;;
39772;SDS011;25451;51.960;6.250;2022-08-21T03:51:11;6.40;;;3.13;;
39772;SDS011;25451;51.960;6.250;2022-08-21T03:53:37;7.10;;;3.20;;
39772;SDS011;25451;51.960;6.250;2022-08-21T03:56:02;5.20;;;2.80;;
39772;SDS011;25451;51.960;6.250;2022-08-21T03:58:29;5.90;;;3.20;;
39772;SDS011;25451;51.960;6.250;2022-08-21T04:00:55;5.82;;;3.08;;
39772;SDS011;25451;51.960;6.250;2022-08-21T04:03:22;6.13;;;3.50;;
39772;SDS011;25451;51.960;6.250;2022-08-21T04:05:48;6.05;;;3.20;;
39772;SDS011;25451;51.960;6.250;2022-08-21T04:08:14;5.63;;;3.10;;
39772;SDS011;25451;51.960;6.250;2022-08-21T04:10:42;6.88;;;3.28;;
39772;SDS011;25451;51.960;6.250;2022-08-21T04:13:08;5.22;;;3.17;;
39772;SDS011;25451;51.960;6.250;2022-08-21T04:15:34;6.13;;;3.07;;
39772;SDS011;25451;51.960;6.250;2022-08-21T04:18:00;6.78;;;3.40;;
39772;SDS011;25451;51.960;6.250;2022-08-21T04:20:25;5.53;;;3.27;;
39772;SDS011;25451;51.960;6.250;2022-08-21T04:22:51;7.97;;;3.47;;
39772;SDS011;25451;51.960;6.250;2022-08-21T04:25:18;6.57;;;3.40;;
39772;SDS011;25451;51.960;6.250;2022-08-21T04:27:46;6.03;;;3.40;;
39772;SDS011;25451;51.960;6.250;2022-08-21T04:30:12;6.03;;;3.33;;
39772;SDS011;25451;51.960;6.250;2022-08-21T04:32:41;5.38;;;3.00;;
39772;SDS011;25451;51.960;6.250;2022-08-21T04:35:09;6.65;;;3.40;;
39772;SDS011;25451;51.960;6.250;2022-08-21T04:37:36;5.95;;;3.40;;
39772;SDS011;25451;51.960;6.250;2022-08-21T04:40:02;6.53;;;3.60;;
39772;SDS011;25451;51.960;6.250;2022-08-21T04:42:29;7.85;;;3.28;;
39772;SDS011;25451;51.960;6.250;2022-08-21T04:44:54;5.93;;;3.40;;
39772;SDS011;25451;51.960;6.250;2022-08-21T04:47:21;7.80;;;3.90;;
39772;SDS011;25451;51.960;6.250;2022-08-21T04:49:48;5.88;;;3.60;;
39772;SDS011;25451;51.960;6.250;2022-08-21T04:52:15;7.13;;;3.47;;
39772;SDS011;25451;51.960;6.250;2022-08-21T04:54:44;7.38;;;3.47;;
39772;SDS011;25451;51.960;6.250;2022-08-21T04:57:11;6.95;;;3.53;;
39772;SDS011;25451;51.960;6.250;2022-08-21T04:59:41;7.13;;;3.50;;
39772;SDS011;25451;51.960;6.250;2022-08-21T05:02:10;9.40;;;3.53;;
39772;SDS011;25451;51.960;6.250;2022-08-21T05:04:38;6.53;;;3.50;;
39772;SDS011;25451;51.960;6.250;2022-08-21T05:07:10;5.75;;;3.53;;
39772;SDS011;25451;51.960;6.250;2022-08-21T05:09:39;8.02;;;3.30;;
39772;SDS011;25451;51.960;6.250;2022-08-21T05:12:05;7.63;;;3.50;;
39772;SDS011;25451;51.960;6.250;2022-08-21T05:14:30;6.18;;;3.40;;
39772;SDS011;25451;51.960;6.250;2022-08-21T05:16:56;7.33;;;3.80;;
39772;SDS011;25451;51.960;6.250;2022-08-21T05:19:21;6.57;;;3.43;;
39772;SDS011;25451;51.960;6.250;2022-08-21T05:21:47;7.47;;;3.77;;
39772;SDS011;25451;51.960;6.250;2022-08-21T05:24:13;8.32;;;3.67;;
39772;SDS011;25451;51.960;6.250;2022-08-21T05:26:39;8.88;;;3.95;;
39772;SDS011;25451;51.960;6.250;2022-08-21T05:29:05;7.23;;;3.93;;
39772;SDS011;25451;51.960;6.250;2022-08-21T05:31:31;6.03;;;3.75;;
39772;SDS011;25451;51.960;6.250;2022-08-21T05:33:56;6.60;;;3.90;;
39772;SDS011;25451;51.960;6.250;2022-08-21T05:36:22;7.50;;;4.30;;
39772;SDS011;25451;51.960;6.250;2022-08-21T05:38:47;9.00;;;4.38;;
39772;SDS011;25451;51.960;6.250;2022-08-21T05:41:13;6.93;;;4.13;;
39772;SDS011;25451;51.960;6.250;2022-08-21T05:43:38;8.87;;;4.07;;
39772;SDS011;25451;51.960;6.250;2022-08-21T05:46:04;8.07;;;4.90;;
39772;SDS011;25451;51.960;6.250;2022-08-21T05:48:31;9.68;;;4.57;;
39772;SDS011;25451;51.960;6.250;2022-08-21T05:50:57;9.30;;;4.50;;
39772;SDS011;25451;51.960;6.250;2022-08-21T05:53:23;11.00;;;5.13;;
39772;SDS011;25451;51.960;6.250;2022-08-21T05:55:49;11.27;;;5.47;;
39772;SDS011;25451;51.960;6.250;2022-08-21T05:58:16;10.43;;;4.93;;
39772;SDS011;25451;51.960;6.250;2022-08-21T06:00:43;12.98;;;5.30;;
39772;SDS011;25451;51.960;6.250;2022-08-21T06:03:20;8.63;;;4.87;;
39772;SDS011;25451;51.960;6.250;2022-08-21T06:05:48;7.38;;;4.53;;
39772;SDS011;25451;51.960;6.250;2022-08-21T06:08:14;8.73;;;5.23;;
39772;SDS011;25451;51.960;6.250;2022-08-21T06:10:41;9.82;;;5.30;;
39772;SDS011;25451;51.960;6.250;2022-08-21T06:13:06;8.95;;;4.97;;
39772;SDS011;25451;51.960;6.250;2022-08-21T06:15:31;11.27;;;5.07;;
39772;SDS011;25451;51.960;6.250;2022-08-21T06:17:57;9.70;;;5.90;;
39772;SDS011;25451;51.960;6.250;2022-08-21T06:20:22;12.23;;;5.77;;
39772;SDS011;25451;51.960;6.250;2022-08-21T06:22:48;11.43;;;6.40;;
39772;SDS011;25451;51.960;6.250;2022-08-21T06:25:13;10.13;;;6.80;;
39772;SDS011;25451;51.960;6.250;2022-08-21T06:27:39;12.98;;;6.68;;
39772;SDS011;25451;51.960;6.250;2022-08-21T06:30:05;11.93;;;7.27;;
39772;SDS011;25451;51.960;6.250;2022-08-21T06:32:31;13.20;;;7.38;;
39772;SDS011;25451;51.960;6.250;2022-08-21T06:34:57;14.47;;;7.90;;
39772;SDS011;25451;51.960;6.250;2022-08-21T06:37:22;13.03;;;7.33;;
39772;SDS011;25451;51.960;6.250;2022-08-21T06:39:47;12.23;;;7.23;;
39772;SDS011;25451;51.960;6.250;2022-08-21T06:42:14;11.00;;;6.85;;
39772;SDS011;25451;51.960;6.250;2022-08-21T06:44:40;13.80;;;7.38;;
39772;SDS011;25451;51.960;6.250;2022-08-21T06:47:05;12.10;;;6.57;;
39772;SDS011;25451;51.960;6.250;2022-08-21T06:49:31;13.83;;;7.03;;
39772;SDS011;25451;51.960;6.250;2022-08-21T06:51:56;13.17;;;6.90;;
39772;SDS011;25451;51.960;6.250;2022-08-21T06:54:21;10.70;;;6.80;;
39772;SDS011;25451;51.960;6.250;2022-08-21T06:56:47;9.85;;;6.40;;
39772;SDS011;25451;51.960;6.250;2022-08-21T06:59:12;10.93;;;5.93;;
39772;SDS011;25451;51.960;6.250;2022-08-21T07:01:38;10.97;;;6.90;;
39772;SDS011;25451;51.960;6.250;2022-08-21T07:04:04;12.68;;;6.40;;
39772;SDS011;25451;51.960;6.250;2022-08-21T07:06:29;12.30;;;6.80;;
39772;SDS011;25451;51.960;6.250;2022-08-21T07:08:55;11.82;;;6.13;;
39772;SDS011;25451;51.960;6.250;2022-08-21T07:11:21;12.60;;;6.20;;
39772;SDS011;25451;51.960;6.250;2022-08-21T07:13:48;12.02;;;6.60;;
39772;SDS011;25451;51.960;6.250;2022-08-21T07:16:16;11.27;;;6.45;;
39772;SDS011;25451;51.960;6.250;2022-08-21T07:18:41;12.80;;;5.97;;
39772;SDS011;25451;51.960;6.250;2022-08-21T07:21:07;10.03;;;6.03;;
39772;SDS011;25451;51.960;6.250;2022-08-21T07:23:36;10.27;;;5.72;;
39772;SDS011;25451;51.960;6.250;2022-08-21T07:26:03;9.07;;;5.70;;
39772;SDS011;25451;51.960;6.250;2022-08-21T07:28:29;11.05;;;5.88;;
39772;SDS011;25451;51.960;6.250;2022-08-21T07:30:55;11.85;;;5.72;;
39772;SDS011;25451;51.960;6.250;2022-08-21T07:33:23;16.85;;;6.90;;
39772;SDS011;25451;51.960;6.250;2022-08-21T07:35:49;11.17;;;5.77;;
39772;SDS011;25451;51.960;6.250;2022-08-21T07:38:15;9.30;;;5.47;;
39772;SDS011;25451;51.960;6.250;2022-08-21T07:40:40;11.80;;;6.18;;
39772;SDS011;25451;51.960;6.250;2022-08-21T07:43:06;9.30;;;5.60;;
39772;SDS011;25451;51.960;6.250;2022-08-21T07:45:31;11.50;;;5.87;;
39772;SDS011;25451;51.960;6.250;2022-08-21T07:47:57;14.85;;;6.43;;
39772;SDS011;25451;51.960;6.250;2022-08-21T07:50:23;11.13;;;5.67;;
39772;SDS011;25451;51.960;6.250;2022-08-21T07:52:49;12.40;;;6.13;;
39772;SDS011;25451;51.960;6.250;2022-08-21T07:55:16;12.70;;;6.47;;
39772;SDS011;25451;51.960;6.250;2022-08-21T07:57:43;12.95;;;6.07;;
39772;SDS011;25451;51.960;6.250;2022-08-21T08:00:11;8.67;;;4.30;;
39772;SDS011;25451;51.960;6.250;2022-08-21T08:02:40;10.60;;;5.40;;
39772;SDS011;25451;51.960;6.250;2022-08-21T08:05:07;11.70;;;5.38;;
39772;SDS011;25451;51.960;6.250;2022-08-21T08:07:34;12.85;;;5.50;;
39772;SDS011;25451;51.960;6.250;2022-08-21T08:10:00;9.30;;;4.83;;
39772;SDS011;25451;51.960;6.250;2022-08-21T08:12:27;12.18;;;5.07;;
39772;SDS011;25451;51.960;6.250;2022-08-21T08:14:57;11.20;;;5.00;;
39772;SDS011;25451;51.960;6.250;2022-08-21T08:17:24;11.13;;;4.90;;
39772;SDS011;25451;51.960;6.250;2022-08-21T08:19:50;10.27;;;4.35;;
39772;SDS011;25451;51.960;6.250;2022-08-21T08:22:16;11.20;;;4.53;;
39772;SDS011;25451;51.960;6.250;2022-08-21T08:24:44;8.27;;;3.42;;
39772;SDS011;25451;51.960;6.250;2022-08-21T08:27:13;7.25;;;3.10;;
39772;SDS011;25451;51.960;6.250;2022-08-21T08:29:38;7.50;;;2.70;;
39772;SDS011;25451;51.960;6.250;2022-08-21T08:32:04;9.37;;;2.70;;
39772;SDS011;25451;51.960;6.250;2022-08-21T08:34:32;10.00;;;2.40;;
39772;SDS011;25451;51.960;6.250;2022-08-21T08:36:57;8.85;;;2.92;;
39772;SDS011;25451;51.960;6.250;2022-08-21T08:39:23;12.17;;;3.43;;
39772;SDS011;25451;51.960;6.250;2022-08-21T08:41:49;7.67;;;2.50;;
39772;SDS011;25451;51.960;6.250;2022-08-21T08:44:16;7.97;;;2.80;;
39772;SDS011;25451;51.960;6.250;2022-08-21T08:46:45;8.83;;;2.87;;
39772;SDS011;25451;51.960;6.250;2022-08-21T08:49:18;9.10;;;2.80;;
39772;SDS011;25451;51.960;6.250;2022-08-21T08:51:50;12.48;;;3.47;;
39772;SDS011;25451;51.960;6.250;2022-08-21T08:54:51;10.10;;;3.65;;
39772;SDS011;25451;51.960;6.250;2022-08-21T08:57:37;10.02;;;3.05;;
39772;SDS011;25451;51.960;6.250;2022-08-21T09:00:08;9.60;;;3.20;;
39772;SDS011;25451;51.960;6.250;2022-08-21T09:02:39;9.38;;;3.10;;
39772;SDS011;25451;51.960;6.250;2022-08-21T09:05:09;9.98;;;3.20;;
39772;SDS011;25451;51.960;6.250;2022-08-21T09:10:55;11.35;;;2.90;;
39772;SDS011;25451;51.960;6.250;2022-08-21T09:13:35;11.83;;;3.33;;
39772;SDS011;25451;51.960;6.250;2022-08-21T09:27:13;9.13;;;2.70;;
39772;SDS011;25451;51.960;6.250;2022-08-21T09:29:41;11.80;;;2.60;;
39772;SDS011;25451;51.960;6.250;2022-08-21T09:32:16;6.75;;;2.22;;
39772;SDS011;25451;51.960;6.250;2022-08-21T09:34:54;8.45;;;2.80;;
39772;SDS011;25451;51.960;6.250;2022-08-21T09:43:02;10.30;;;2.00;;
39772;SDS011;25451;51.960;6.250;2022-08-21T09:45:31;8.57;;;2.33;;
39772;SDS011;25451;51.960;6.250;2022-08-21T09:48:10;9.38;;;2.20;;
39772;SDS011;25451;51.960;6.250;2022-08-21T09:50:47;7.38;;;2.00;;
39772;SDS011;25451;51.960;6.250;2022-08-21T09:53:18;8.23;;;1.80;;
39772;SDS011;25451;51.960;6.250;2022-08-21T09:55:58;7.43;;;2.33;;
39772;SDS011;25451;51.960;6.250;2022-08-21T09:58:46;7.60;;;2.13;;
39772;SDS011;25451;51.960;6.250;2022-08-21T10:01:21;5.60;;;1.90;;
39772;SDS011;25451;51.960;6.250;2022-08-21T10:03:49;6.97;;;1.83;;
39772;SDS011;25451;51.960;6.250;2022-08-21T10:06:28;8.13;;;1.90;;
39772;SDS011;25451;51.960;6.250;2022-08-21T10:09:15;5.53;;;1.70;;
39772;SDS011;25451;51.960;6.250;2022-08-21T10:11:46;5.63;;;1.80;;
39772;SDS011;25451;51.960;6.250;2022-08-21T10:14:37;6.18;;;1.63;;
39772;SDS011;25451;51.960;6.250;2022-08-21T10:17:16;6.15;;;1.77;;
39772;SDS011;25451;51.960;6.250;2022-08-21T10:19:55;5.90;;;1.60;;
39772;SDS011;25451;51.960;6.250;2022-08-21T10:25:23;6.43;;;1.80;;
39772;SDS011;25451;51.960;6.250;2022-08-21T10:28:30;9.43;;;1.75;;
39772;SDS011;25451;51.960;6.250;2022-08-21T10:30:50;5.72;;;1.70;;
39772;SDS011;25451;51.960;6.250;2022-08-21T10:36:18;5.55;;;1.88;;
39772;SDS011;25451;51.960;6.250;2022-08-21T10:38:54;5.88;;;1.70;;
39772;SDS011;25451;51.960;6.250;2022-08-21T10:41:31;3.90;;;1.42;;
39772;SDS011;25451;51.960;6.250;2022-08-21T10:49:14;5.43;;;1.70;;
39772;SDS011;25451;51.960;6.250;2022-08-21T10:54:44;6.30;;;1.58;;
39772;SDS011;25451;51.960;6.250;2022-08-21T11:00:20;4.40;;;1.40;;
39772;SDS011;25451;51.960;6.250;2022-08-21T11:05:44;6.20;;;1.40;;
39772;SDS011;25451;51.960;6.250;2022-08-21T11:08:17;6.07;;;1.50;;
39772;SDS011;25451;51.960;6.250;2022-08-21T11:10:47;4.97;;;1.42;;
39772;SDS011;25451;51.960;6.250;2022-08-21T11:13:18;5.70;;;1.30;;
39772;SDS011;25451;51.960;6.250;2022-08-21T11:16:16;4.13;;;1.20;;
39772;SDS011;25451;51.960;6.250;2022-08-21T11:19:05;4.53;;;1.40;;
39772;SDS011;25451;51.960;6.250;2022-08-21T11:24:32;6.57;;;1.80;;
39772;SDS011;25451;51.960;6.250;2022-08-21T11:27:20;7.03;;;1.40;;
39772;SDS011;25451;51.960;6.250;2022-08-21T11:29:52;5.85;;;1.60;;
39772;SDS011;25451;51.960;6.250;2022-08-21T11:35:20;5.43;;;1.50;;
39772;SDS011;25451;51.960;6.250;2022-08-21T11:40:34;3.33;;;1.00;;
39772;SDS011;25451;51.960;6.250;2022-08-21T11:46:18;3.60;;;1.30;;
39772;SDS011;25451;51.960;6.250;2022-08-21T11:48:55;5.15;;;1.40;;
39772;SDS011;25451;51.960;6.250;2022-08-21T11:51:33;3.10;;;1.20;;
39772;SDS011;25451;51.960;6.250;2022-08-21T11:54:09;5.68;;;1.40;;
39772;SDS011;25451;51.960;6.250;2022-08-21T11:56:55;4.22;;;1.25;;
39772;SDS011;25451;51.960;6.250;2022-08-21T11:59:32;6.53;;;1.43;;
39772;SDS011;25451;51.960;6.250;2022-08-21T12:02:12;5.95;;;1.63;;
39772;SDS011;25451;51.960;6.250;2022-08-21T12:04:45;5.80;;;1.45;;
39772;SDS011;25451;51.960;6.250;2022-08-21T12:09:58;6.95;;;1.40;;
39772;SDS011;25451;51.960;6.250;2022-08-21T12:12:29;7.17;;;1.40;;
39772;SDS011;25451;51.960;6.250;2022-08-21T12:15:42;5.88;;;1.20;;
39772;SDS011;25451;51.960;6.250;2022-08-21T12:18:03;3.97;;;1.20;;
39772;SDS011;25451;51.960;6.250;2022-08-21T12:25:35;5.93;;;1.50;;
39772;SDS011;25451;51.960;6.250;2022-08-21T12:28:07;4.67;;;1.13;;
39772;SDS011;25451;51.960;6.250;2022-08-21T12:30:42;6.45;;;1.17;;
39772;SDS011;25451;51.960;6.250;2022-08-21T12:38:49;3.38;;;1.30;;
39772;SDS011;25451;51.960;6.250;2022-08-21T12:41:20;4.70;;;1.20;;
39772;SDS011;25451;51.960;6.250;2022-08-21T12:43:53;4.60;;;1.50;;
39772;SDS011;25451;51.960;6.250;2022-08-21T12:46:39;4.43;;;1.38;;
39772;SDS011;25451;51.960;6.250;2022-08-21T12:52:24;4.60;;;1.30;;
39772;SDS011;25451;51.960;6.250;2022-08-21T12:54:55;8.93;;;1.30;;
39772;SDS011;25451;51.960;6.250;2022-08-21T12:57:22;5.40;;;1.40;;
39772;SDS011;25451;51.960;6.250;2022-08-21T12:59:56;3.97;;;1.20;;
39772;SDS011;25451;51.960;6.250;2022-08-21T13:02:31;4.57;;;1.20;;
39772;SDS011;25451;51.960;6.250;2022-08-21T13:05:03;2.83;;;1.00;;
39772;SDS011;25451;51.960;6.250;2022-08-21T13:07:32;2.83;;;1.10;;
39772;SDS011;25451;51.960;6.250;2022-08-21T13:10:03;4.10;;;1.20;;
39772;SDS011;25451;51.960;6.250;2022-08-21T13:12:32;6.05;;;1.30;;
39772;SDS011;25451;51.960;6.250;2022-08-21T13:15:00;4.90;;;1.30;;
39772;SDS011;25451;51.960;6.250;2022-08-21T13:17:31;4.35;;;1.10;;
39772;SDS011;25451;51.960;6.250;2022-08-21T13:20:01;5.57;;;1.20;;
39772;SDS011;25451;51.960;6.250;2022-08-21T13:22:30;4.57;;;1.20;;
39772;SDS011;25451;51.960;6.250;2022-08-21T13:24:56;3.55;;;1.20;;
39772;SDS011;25451;51.960;6.250;2022-08-21T13:27:24;5.20;;;1.30;;
39772;SDS011;25451;51.960;6.250;2022-08-21T13:32:30;3.50;;;1.20;;
39772;SDS011;25451;51.960;6.250;2022-08-21T13:34:59;5.25;;;1.40;;
39772;SDS011;25451;51.960;6.250;2022-08-21T13:37:32;4.00;;;1.13;;
39772;SDS011;25451;51.960;6.250;2022-08-21T13:39:58;4.60;;;1.30;;
39772;SDS011;25451;51.960;6.250;2022-08-21T13:42:23;2.60;;;1.20;;
39772;SDS011;25451;51.960;6.250;2022-08-21T13:44:50;4.90;;;1.30;;
39772;SDS011;25451;51.960;6.250;2022-08-21T13:47:17;3.55;;;1.20;;
39772;SDS011;25451;51.960;6.250;2022-08-21T13:49:44;3.97;;;1.73;;
39772;SDS011;25451;51.960;6.250;2022-08-21T13:54:50;5.95;;;1.50;;
39772;SDS011;25451;51.960;6.250;2022-08-21T13:57:24;4.23;;;1.10;;
39772;SDS011;25451;51.960;6.250;2022-08-21T14:00:10;4.78;;;1.30;;
39772;SDS011;25451;51.960;6.250;2022-08-21T14:02:44;4.35;;;1.10;;
39772;SDS011;25451;51.960;6.250;2022-08-21T14:05:25;3.80;;;1.30;;
39772;SDS011;25451;51.960;6.250;2022-08-21T14:07:57;5.18;;;1.30;;
39772;SDS011;25451;51.960;6.250;2022-08-21T14:10:48;3.93;;;1.20;;
39772;SDS011;25451;51.960;6.250;2022-08-21T14:13:27;3.78;;;0.93;;
39772;SDS011;25451;51.960;6.250;2022-08-21T14:16:14;3.30;;;1.20;;
39772;SDS011;25451;51.960;6.250;2022-08-21T14:18:44;3.80;;;1.33;;
39772;SDS011;25451;51.960;6.250;2022-08-21T14:21:13;4.53;;;1.40;;
39772;SDS011;25451;51.960;6.250;2022-08-21T14:24:01;4.63;;;1.30;;
39772;SDS011;25451;51.960;6.250;2022-08-21T14:26:32;3.47;;;1.10;;
39772;SDS011;25451;51.960;6.250;2022-08-21T14:29:01;3.03;;;1.17;;
39772;SDS011;25451;51.960;6.250;2022-08-21T14:31:28;4.53;;;1.10;;
39772;SDS011;25451;51.960;6.250;2022-08-21T14:33:57;4.85;;;1.05;;
39772;SDS011;25451;51.960;6.250;2022-08-21T14:36:23;4.68;;;1.50;;
39772;SDS011;25451;51.960;6.250;2022-08-21T14:38:49;6.40;;;1.30;;
39772;SDS011;25451;51.960;6.250;2022-08-21T14:41:24;5.40;;;1.10;;
39772;SDS011;25451;51.960;6.250;2022-08-21T14:43:52;4.67;;;1.20;;
39772;SDS011;25451;51.960;6.250;2022-08-21T14:46:23;4.70;;;1.50;;
39772;SDS011;25451;51.960;6.250;2022-08-21T14:48:51;3.58;;;1.30;;
39772;SDS011;25451;51.960;6.250;2022-08-21T14:51:17;4.22;;;1.27;;
39772;SDS011;25451;51.960;6.250;2022-08-21T14:53:42;3.67;;;1.30;;
39772;SDS011;25451;51.960;6.250;2022-08-21T14:56:08;2.83;;;0.93;;
39772;SDS011;25451;51.960;6.250;2022-08-21T14:58:35;4.18;;;1.38;;
39772;SDS011;25451;51.960;6.250;2022-08-21T15:01:06;3.45;;;1.15;;
39772;SDS011;25451;51.960;6.250;2022-08-21T15:03:33;3.78;;;1.25;;
39772;SDS011;25451;51.960;6.250;2022-08-21T15:06:00;2.67;;;0.97;;
39772;SDS011;25451;51.960;6.250;2022-08-21T15:08:25;3.72;;;1.10;;
39772;SDS011;25451;51.960;6.250;2022-08-21T15:10:51;2.43;;;1.00;;
39772;SDS011;25451;51.960;6.250;2022-08-21T15:13:17;2.65;;;1.00;;
39772;SDS011;25451;51.960;6.250;2022-08-21T15:15:44;4.03;;;0.93;;
39772;SDS011;25451;51.960;6.250;2022-08-21T15:18:12;5.50;;;1.10;;
39772;SDS011;25451;51.960;6.250;2022-08-21T15:20:38;4.00;;;1.20;;
39772;SDS011;25451;51.960;6.250;2022-08-21T15:23:04;2.67;;;1.08;;
39772;SDS011;25451;51.960;6.250;2022-08-21T15:25:30;3.93;;;1.00;;
39772;SDS011;25451;51.960;6.250;2022-08-21T15:27:56;3.63;;;0.93;;
39772;SDS011;25451;51.960;6.250;2022-08-21T15:30:23;3.03;;;1.10;;
39772;SDS011;25451;51.960;6.250;2022-08-21T15:32:48;3.93;;;1.10;;
39772;SDS011;25451;51.960;6.250;2022-08-21T15:35:13;2.20;;;1.20;;
39772;SDS011;25451;51.960;6.250;2022-08-21T15:37:39;3.67;;;1.00;;
39772;SDS011;25451;51.960;6.250;2022-08-21T15:40:05;3.20;;;0.90;;
39772;SDS011;25451;51.960;6.250;2022-08-21T15:42:32;4.60;;;1.27;;
39772;SDS011;25451;51.960;6.250;2022-08-21T15:44:58;4.13;;;1.10;;
39772;SDS011;25451;51.960;6.250;2022-08-21T15:47:30;3.90;;;1.10;;
39772;SDS011;25451;51.960;6.250;2022-08-21T15:49:58;4.13;;;1.00;;
39772;SDS011;25451;51.960;6.250;2022-08-21T15:52:24;4.72;;;1.05;;
39772;SDS011;25451;51.960;6.250;2022-08-21T15:54:49;3.90;;;1.10;;
39772;SDS011;25451;51.960;6.250;2022-08-21T15:57:16;3.73;;;0.90;;
39772;SDS011;25451;51.960;6.250;2022-08-21T15:59:47;3.60;;;1.10;;
39772;SDS011;25451;51.960;6.250;2022-08-21T16:02:18;3.05;;;1.00;;
39772;SDS011;25451;51.960;6.250;2022-08-21T16:04:49;4.05;;;1.10;;
39772;SDS011;25451;51.960;6.250;2022-08-21T16:07:14;4.60;;;1.20;;
39772;SDS011;25451;51.960;6.250;2022-08-21T16:09:40;3.37;;;1.10;;